createdAt,value
2019-04-20T00:04:30.994Z,16.32
2019-04-20T00:09:38.387Z,15.68
2019-04-20T00:14:42.534Z,18.30
2019-04-20T00:19:53.548Z,15.48
2019-04-20T00:25:20.117Z,15.93
2019-04-20T00:30:41.635Z,14.30
2019-04-20T00:35:29.316Z,18.00
2019-04-20T00:40:36.093Z,17.48
2019-04-20T00:45:46.742Z,18.27
2019-04-20T00:51:11.465Z,16.05
2019-04-20T00:55:57.125Z,19.62
2019-04-20T01:01:20.496Z,21.00
2019-04-20T01:07:01.562Z,18.90
2019-04-20T01:11:54.576Z,17.27
2019-04-20T01:17:10.931Z,20.20
2019-04-20T01:22:14.754Z,21.77
2019-04-20T01:27:28.390Z,17.75
2019-04-20T01:32:33.449Z,19.42
2019-04-20T01:37:38.422Z,18.48
2019-04-20T01:42:36.130Z,20.02
2019-04-20T01:47:47.276Z,19.60
2019-04-20T01:52:58.018Z,19.30
2019-04-20T02:03:38.381Z,19.98
2019-04-20T02:08:40.048Z,17.85
2019-04-20T02:13:52.910Z,18.37
2019-04-20T02:19:12.029Z,22.30
2019-04-20T02:24:04.046Z,18.67
2019-04-20T02:29:30.531Z,19.12
2019-04-20T02:34:59.830Z,19.65
2019-04-20T02:45:18.661Z,19.07
2019-04-20T02:50:22.469Z,19.57
2019-04-20T02:55:33.925Z,18.57
2019-04-20T03:00:29.667Z,18.57
2019-04-20T03:05:25.629Z,18.92
2019-04-20T03:10:51.016Z,19.40
2019-04-20T03:15:42.336Z,17.20
2019-04-20T03:20:56.448Z,19.42
2019-04-20T03:26:11.005Z,19.20
2019-04-20T03:36:49.535Z,20.23
2019-04-20T03:41:22.452Z,20.50
2019-04-20T03:46:30.192Z,20.10
2019-04-20T03:51:51.748Z,21.87
2019-04-20T03:57:06.620Z,19.65
2019-04-20T04:02:42.759Z,19.35
2019-04-20T04:07:25.213Z,21.50
2019-04-20T04:13:07.146Z,20.97
2019-04-20T04:18:21.968Z,19.77
2019-04-20T04:23:40.418Z,21.77
2019-04-20T04:28:46.331Z,24.20
2019-04-20T04:39:22.553Z,20.52
2019-04-20T04:44:08.658Z,19.27
2019-04-20T04:49:06.794Z,19.45
2019-04-20T04:54:16.400Z,19.40
2019-04-20T04:59:12.787Z,21.53
2019-04-20T05:04:40.480Z,19.40
2019-04-20T05:09:29.608Z,21.25
2019-04-20T05:14:49.706Z,17.35
2019-04-20T05:20:06.660Z,18.55
2019-04-20T05:25:32.755Z,24.40
2019-04-20T05:30:20.185Z,20.90
2019-04-20T05:35:47.722Z,21.12
2019-04-20T05:40:50.293Z,21.77
2019-04-20T05:45:52.603Z,31.77
2019-04-20T05:51:02.002Z,21.15
2019-04-20T05:56:17.400Z,23.73
2019-04-20T06:01:29.473Z,25.27
2019-04-20T06:06:33.170Z,25.45
2019-04-20T06:11:44.900Z,20.97
2019-04-20T06:17:04.763Z,19.10
2019-04-20T06:22:21.440Z,20.12
2019-04-20T06:27:25.498Z,19.23
2019-04-20T06:33:19.172Z,19.85
2019-04-20T06:38:37.552Z,20.85
2019-04-20T06:43:25.401Z,20.05
2019-04-20T06:53:43.437Z,21.73
2019-04-20T06:58:49.932Z,23.42
2019-04-20T07:04:10.783Z,21.25
2019-04-20T07:09:16.985Z,22.13
2019-04-20T07:14:00.958Z,22.45
2019-04-20T07:19:35.234Z,21.90
2019-04-20T07:24:42.136Z,21.87
2019-04-20T07:29:47.487Z,22.13
2019-04-20T07:34:56.354Z,20.37
2019-04-20T07:40:07.516Z,22.93
2019-04-20T07:45:19.930Z,21.62
2019-04-20T07:50:13.629Z,22.93
2019-04-20T08:00:48.586Z,23.62
2019-04-20T08:06:03.710Z,23.73
2019-04-20T08:11:23.163Z,21.05
2019-04-20T08:16:43.897Z,20.90
2019-04-20T08:21:42.280Z,21.73
2019-04-20T08:26:32.039Z,20.17
2019-04-20T08:32:11.639Z,24.77
2019-04-20T08:37:17.600Z,23.83
2019-04-20T08:43:47.385Z,20.37
2019-04-20T08:53:08.866Z,22.77
2019-04-20T08:57:42.881Z,20.20
2019-04-20T09:02:55.584Z,20.45
2019-04-20T09:08:06.824Z,19.00
2019-04-20T09:14:44.764Z,21.95
2019-04-20T09:19:55.819Z,22.35
2019-04-20T09:25:27.903Z,22.32
2019-04-20T09:30:17.390Z,19.60
2019-04-20T09:35:25.135Z,19.80
2019-04-20T09:40:35.011Z,19.92
2019-04-20T09:45:36.882Z,19.02
2019-04-20T09:50:55.579Z,23.47
2019-04-20T09:56:00.555Z,21.75
2019-04-20T10:01:03.354Z,20.20
2019-04-20T10:05:51.656Z,22.20
2019-04-20T10:10:56.111Z,26.30
2019-04-20T10:15:59.889Z,25.72
2019-04-20T10:21:03.639Z,22.15
2019-04-20T10:26:08.910Z,25.60
2019-04-20T10:31:12.879Z,22.98
2019-04-20T10:36:39.614Z,24.00
2019-04-20T10:41:50.596Z,22.48
2019-04-20T10:46:49.224Z,23.30
2019-04-20T10:51:53.613Z,24.85
2019-04-20T10:56:57.463Z,25.17
2019-04-20T11:02:01.527Z,22.60
2019-04-20T11:07:05.718Z,21.02
2019-04-20T11:12:10.437Z,21.77
2019-04-20T11:17:14.356Z,22.90
2019-04-20T11:22:18.097Z,18.73
2019-04-20T11:27:22.556Z,21.10
2019-04-20T11:32:28.368Z,22.77
2019-04-20T11:37:33.263Z,22.35
2019-04-20T11:42:37.436Z,22.98
2019-04-20T11:47:41.313Z,21.50
2019-04-20T11:52:48.171Z,23.20
2019-04-20T11:57:51.489Z,23.83
2019-04-20T12:03:23.730Z,22.25
2019-04-20T12:08:20.828Z,25.50
2019-04-20T12:13:24.847Z,18.90
2019-04-20T12:18:29.543Z,19.02
2019-04-20T12:23:34.008Z,20.25
2019-04-20T12:28:38.117Z,18.20
2019-04-20T12:33:44.644Z,19.85
2019-04-20T12:38:50.896Z,19.27
2019-04-20T12:43:56.039Z,17.17
2019-04-20T12:49:00.279Z,20.08
2019-04-20T12:54:04.695Z,18.75
2019-04-20T12:59:09.622Z,16.12
2019-04-20T13:04:14.434Z,15.90
2019-04-20T13:09:18.756Z,16.87
2019-04-20T13:14:36.520Z,16.85
2019-04-20T13:19:41.548Z,17.23
2019-04-20T13:24:45.329Z,15.15
2019-04-20T13:29:50.846Z,15.18
2019-04-20T13:34:56.185Z,18.37
2019-04-20T13:40:00.957Z,14.07
2019-04-20T13:45:08.453Z,16.35
2019-04-20T13:50:14.465Z,17.17
2019-04-20T13:55:21.933Z,14.87
2019-04-20T14:00:54.061Z,13.98
2019-04-20T14:05:58.413Z,15.28
2019-04-20T14:11:03.176Z,13.93
2019-04-20T14:16:07.418Z,17.85
2019-04-20T14:21:12.206Z,16.42
2019-04-20T14:26:16.724Z,15.90
2019-04-20T14:31:21.670Z,13.22
2019-04-20T14:36:26.555Z,11.50
2019-04-20T14:41:30.732Z,15.28
2019-04-20T14:46:35.883Z,12.88
2019-04-20T14:51:39.708Z,13.48
2019-04-20T14:56:43.538Z,14.15
2019-04-20T15:01:54.792Z,13.78
2019-04-20T15:07:00.167Z,14.73
2019-04-20T15:12:04.539Z,12.68
2019-04-20T15:17:11.004Z,15.20
2019-04-20T15:22:49.812Z,14.75
2019-04-20T15:27:54.508Z,11.53
2019-04-20T15:32:59.096Z,11.90
2019-04-20T15:38:03.010Z,11.88
2019-04-20T15:43:13.906Z,13.35
2019-04-20T15:48:14.164Z,16.65
2019-04-20T15:53:19.715Z,14.85
2019-04-20T15:58:24.015Z,11.40
2019-04-20T16:03:37.567Z,14.15
2019-04-20T16:08:46.270Z,25.08
2019-04-20T16:13:53.710Z,13.35
2019-04-20T16:18:56.820Z,13.43
2019-04-20T16:24:08.903Z,12.13
2019-04-20T16:29:13.441Z,11.55
2019-04-20T16:34:17.376Z,11.25
2019-04-20T16:39:22.515Z,11.83
2019-04-20T16:44:27.313Z,12.78
2019-04-20T16:49:31.170Z,12.58
2019-04-20T16:54:35.652Z,12.60
2019-04-20T16:59:45.666Z,12.47
2019-04-20T17:04:47.130Z,12.37
2019-04-20T17:09:51.843Z,14.15
2019-04-20T17:14:55.955Z,12.53
2019-04-20T17:19:59.789Z,10.63
2019-04-20T17:25:03.956Z,14.43
2019-04-20T17:30:31.289Z,12.75
2019-04-20T17:35:47.307Z,13.95
2019-04-20T17:41:01.248Z,15.98
2019-04-20T17:45:57.639Z,17.32
2019-04-20T17:51:12.327Z,13.88
2019-04-20T17:56:01.884Z,16.02
2019-04-20T18:01:51.576Z,19.42
2019-04-20T18:06:53.813Z,19.82
2019-04-20T18:11:52.788Z,23.18
2019-04-20T18:17:15.030Z,19.02
2019-04-20T18:22:09.850Z,17.75
2019-04-20T18:27:38.932Z,12.93
2019-04-20T18:32:25.328Z,13.60
2019-04-20T18:37:30.825Z,11.97
2019-04-20T18:42:40.667Z,11.63
2019-04-20T18:48:04.438Z,14.18
2019-04-20T18:52:45.780Z,13.20
2019-04-20T18:57:50.831Z,15.25
2019-04-20T19:02:57.569Z,14.60
2019-04-20T19:08:05.287Z,17.52
2019-04-20T19:13:20.291Z,14.25
2019-04-20T19:18:54.112Z,14.15
2019-04-20T19:23:53.362Z,14.25
2019-04-20T19:28:54.491Z,27.20
2019-04-20T19:34:15.350Z,26.02
2019-04-20T19:39:19.882Z,22.65
2019-04-20T19:44:19.261Z,14.98
2019-04-20T19:49:25.278Z,13.30
2019-04-20T19:54:43.367Z,15.43
2019-04-20T19:59:34.774Z,16.10
2019-04-20T20:04:33.279Z,13.95
2019-04-20T20:09:39.511Z,27.10
2019-04-20T20:14:47.530Z,27.00
2019-04-20T20:20:16.406Z,18.65
2019-04-20T20:24:56.868Z,16.57
2019-04-20T20:30:11.977Z,18.27
2019-04-20T20:35:17.863Z,16.07
2019-04-20T20:40:18.811Z,15.20
2019-04-20T20:45:30.820Z,11.95
2019-04-20T20:50:43.178Z,11.53
2019-04-20T20:55:38.316Z,11.40
2019-04-20T21:00:51.616Z,9.65
2019-04-20T21:05:41.859Z,10.85
2019-04-20T21:10:46.376Z,11.97
2019-04-20T21:15:59.494Z,10.70
2019-04-20T21:21:11.450Z,11.75
2019-04-20T21:26:11.423Z,12.37
2019-04-20T21:31:21.686Z,11.40
2019-04-20T21:36:25.903Z,9.80
2019-04-20T21:41:26.071Z,13.25
2019-04-20T21:46:40.847Z,10.35
2019-04-20T21:51:45.678Z,12.40
2019-04-20T21:56:49.904Z,14.83
2019-04-20T22:01:58.418Z,13.85
2019-04-20T22:06:54.269Z,12.60
2019-04-20T22:12:00.144Z,18.65
2019-04-20T22:17:05.478Z,12.93
2019-04-20T22:22:18.541Z,12.75
2019-04-20T22:27:21.103Z,18.87
2019-04-20T22:32:22.135Z,14.80
2019-04-20T22:37:31.913Z,15.32
2019-04-20T22:42:40.143Z,14.07
2019-04-20T22:47:42.554Z,14.85
2019-04-20T22:52:55.313Z,15.28
2019-04-20T22:58:00.963Z,16.07
2019-04-20T23:02:58.808Z,17.65
2019-04-20T23:08:02.695Z,15.70
2019-04-20T23:13:07.374Z,13.80
2019-04-20T23:18:11.951Z,13.60
2019-04-20T23:23:19.779Z,17.50
2019-04-20T23:28:23.067Z,15.35
2019-04-20T23:33:27.634Z,15.40
2019-04-20T23:38:32.644Z,15.78
2019-04-20T23:43:43.380Z,16.67
2019-04-20T23:49:13.504Z,15.03
2019-04-20T23:54:18.662Z,17.98
2019-04-20T23:59:19.117Z,17.20
